| time (UTC) | temp F | wind direction | speed MPH | gust MPH | rain 1hr in | rain 24hr in | rain mn in | humidity % | barometer mb |
| 20260903034517 | 53 | 95 | 2.0 | 6.0 | 0.00 | 0.13 | 0.00 | 75 | 1009.2 |
| 20260903033016 | 53 | 86 | 1.0 | 6.0 | 0.00 | 0.13 | 0.00 | 75 | 1009.2 |
| 20260903031527 | 53 | 126 | 3.0 | 7.0 | 0.00 | 0.13 | 0.00 | 74 | 1009.4 |
| 20260903030013 | 53 | 130 | 3.0 | 7.0 | 0.00 | 0.13 | 0.00 | 74 | 1009.6 |
| 20260903024511 | 53 | 140 | 5.0 | 8.0 | 0.00 | 0.13 | 0.00 | 73 | 1009.7 |
| 20260903023009 | 53 | 170 | 5.0 | 7.0 | 0.00 | 0.13 | 0.00 | 75 | 1010.0 |
| 20260903021520 | 53 | 148 | 6.0 | 8.0 | 0.00 | 0.13 | 0.00 | 75 | 1010.1 |
| 20260903020004 | 53 | 172 | 4.0 | 6.0 | 0.00 | 0.13 | 0.00 | 75 | 1010.2 |
| 20260903014502 | 53 | 154 | 4.0 | 8.0 | 0.00 | 0.13 | 0.00 | 73 | 1010.4 |
| 20260903013100 | 53 | 146 | 5.0 | 8.0 | 0.00 | 0.13 | 0.00 | 74 | 1010.5 |
| 20260903011559 | 52 | 326 | 0.0 | 4.0 | 0.00 | 0.13 | 0.00 | 71 | 1010.5 |
| 20260903010054 | 52 | 334 | 1.0 | 3.0 | 0.00 | 0.13 | 0.00 | 70 | 1010.7 |
| 20260903004551 | 52 | 321 | 0.0 | 4.0 | 0.00 | 0.13 | 0.00 | 69 | 1010.9 |
| 20260903003052 | 52 | 234 | 2.0 | 5.0 | 0.00 | 0.13 | 0.00 | 70 | 1011.0 |
| 20260903001546 | 53 | 294 | 2.0 | 8.0 | 0.00 | 0.13 | 0.00 | 67 | 1011.2 |
| 20260903000043 | 54 | 306 | 4.0 | 9.0 | 0.00 | 0.13 | 0.00 | 67 | 1011.3 |
| 20260902234542 | 54 | 246 | 3.0 | 5.0 | 0.00 | 0.13 | 0.00 | 70 | 1011.3 |
| 20260902233041 | 54 | 323 | 1.0 | 6.0 | 0.00 | 0.13 | 0.00 | 67 | 1011.5 |
| 20260902231555 | 54 | 300 | 2.0 | 7.0 | 0.00 | 0.13 | 0.00 | 67 | 1011.6 |
| 20260902230039 | 55 | 222 | 3.0 | 7.0 | 0.00 | 0.13 | 0.00 | 65 | 1011.7 |
| 20260902224535 | 54 | 284 | 2.0 | 9.0 | 0.00 | 0.13 | 0.00 | 66 | 1011.8 |
| 20260902223032 | 54 | 278 | 3.0 | 8.0 | 0.00 | 0.13 | 0.00 | 68 | 1011.9 |
| 20260902221529 | 54 | 271 | 4.0 | 9.0 | 0.00 | 0.13 | 0.00 | 68 | 1011.9 |
| 20260902220027 | 55 | 301 | 4.0 | 9.0 | 0.00 | 0.13 | 0.00 | 70 | 1011.8 |
| 20260902214525 | 55 | 246 | 7.0 | 10.0 | 0.00 | 0.13 | 0.13 | 72 | 1011.9 |
| 20260902213024 | 56 | 232 | 7.0 | 10.0 | 0.00 | 0.13 | 0.13 | 68 | 1011.9 |
| 20260902211525 | 55 | 223 | 5.0 | 11.0 | 0.00 | 0.13 | 0.13 | 67 | 1011.9 |
| 20260902210033 | 55 | 234 | 7.0 | 10.0 | 0.00 | 0.13 | 0.13 | 67 | 1011.9 |
| 20260902204523 | 53 | 315 | 2.0 | 9.0 | 0.00 | 0.17 | 0.13 | 62 | 1011.9 |
| 20260902203022 | 53 | 315 | 4.0 | 8.0 | 0.00 | 0.17 | 0.13 | 62 | 1012.0 |
| 20260902201522 | 53 | 297 | 4.0 | 9.0 | 0.00 | 0.17 | 0.13 | 61 | 1012.1 |
| 20260902200022 | 54 | 298 | 7.0 | 12.0 | 0.00 | 0.17 | 0.13 | 63 | 1012.1 |
| 20260902194525 | 54 | 288 | 5.0 | 9.0 | 0.00 | 0.23 | 0.13 | 64 | 1012.1 |
| 20260902193019 | 54 | 217 | 4.0 | 10.0 | 0.00 | 0.23 | 0.13 | 65 | 1012.1 |
| 20260902191521 | 55 | 263 | 8.0 | 14.0 | 0.00 | 0.23 | 0.13 | 63 | 1012.0 |
| 20260902190025 | 54 | 281 | 3.0 | 9.0 | 0.00 | 0.23 | 0.13 | 64 | 1012.2 |
| 20260902184517 | 54 | 290 | 2.0 | 7.0 | 0.00 | 0.24 | 0.13 | 64 | 1012.2 |
| 20260902183018 | 55 | 305 | 4.0 | 12.0 | 0.00 | 0.24 | 0.13 | 60 | 1012.2 |
| 20260902181518 | 55 | 254 | 9.0 | 16.0 | 0.00 | 0.24 | 0.13 | 64 | 1012.1 |
| 20260902180015 | 55 | 247 | 7.0 | 14.0 | 0.00 | 0.24 | 0.13 | 66 | 1012.1 |
| 20260902174515 | 55 | 227 | 7.0 | 13.0 | 0.00 | 0.24 | 0.13 | 65 | 1012.0 |
| 20260902173015 | 55 | 283 | 6.0 | 13.0 | 0.00 | 0.24 | 0.13 | 63 | 1012.0 |
| 20260902171514 | 55 | 285 | 10.0 | 15.0 | 0.00 | 0.24 | 0.13 | 67 | 1012.0 |
| 20260902170013 | 55 | 244 | 8.0 | 13.0 | 0.00 | 0.24 | 0.13 | 68 | 1012.1 |
| 20260902164513 | 55 | 242 | 9.0 | 12.0 | 0.00 | 0.24 | 0.13 | 68 | 1012.1 |
| 20260902163011 | 55 | 290 | 5.0 | 9.0 | 0.00 | 0.24 | 0.13 | 64 | 1012.0 |
| 20260902161511 | 56 | 267 | 7.0 | 12.0 | 0.00 | 0.24 | 0.13 | 63 | 1012.1 |
| 20260902160017 | 55 | 266 | 8.0 | 14.0 | 0.00 | 0.24 | 0.13 | 64 | 1012.1 |
| 20260902154509 | 55 | 297 | 5.0 | 11.0 | 0.00 | 0.24 | 0.13 | 68 | 1012.2 |
| 20260902153009 | 56 | 259 | 8.0 | 14.0 | 0.00 | 0.24 | 0.13 | 68 | 1012.3 |
| 20260902151509 | 56 | 309 | 6.0 | 13.0 | 0.00 | 0.24 | 0.13 | 67 | 1012.2 |
| 20260902150009 | 56 | 283 | 8.0 | 15.0 | 0.00 | 0.24 | 0.13 | 67 | 1012.2 |
| 20260902144506 | 56 | 274 | 7.0 | 13.0 | 0.00 | 0.24 | 0.13 | 69 | 1012.2 |
| 20260902143006 | 56 | 269 | 7.0 | 14.0 | 0.00 | 0.24 | 0.13 | 70 | 1012.2 |
| 20260902141506 | 56 | 292 | 6.0 | 12.0 | 0.00 | 0.24 | 0.13 | 64 | 1012.3 |
| 20260902140004 | 57 | 246 | 10.0 | 16.0 | 0.00 | 0.24 | 0.13 | 63 | 1012.1 |
| 20260902134504 | 57 | 260 | 9.0 | 14.0 | 0.00 | 0.24 | 0.13 | 67 | 1012.1 |
| 20260902133100 | 57 | 252 | 8.0 | 15.0 | 0.00 | 0.24 | 0.13 | 61 | 1012.0 |
| 20260902131559 | 57 | 273 | 9.0 | 14.0 | 0.00 | 0.24 | 0.13 | 65 | 1012.0 |
| 20260902130056 | 57 | 261 | 9.0 | 15.0 | 0.00 | 0.24 | 0.13 | 67 | 1012.0 |
| 20260902124554 | 57 | 298 | 9.0 | 14.0 | 0.00 | 0.24 | 0.13 | 67 | 1011.9 |
| 20260902123054 | 57 | 250 | 10.0 | 17.0 | 0.00 | 0.24 | 0.13 | 67 | 1011.8 |
| 20260902121551 | 56 | 256 | 10.0 | 18.0 | 0.00 | 0.24 | 0.13 | 70 | 1011.7 |
| 20260902120049 | 57 | 294 | 9.0 | 15.0 | 0.00 | 0.24 | 0.13 | 69 | 1011.5 |
| 20260902114614 | 57 | 295 | 11.0 | 17.0 | 0.00 | 0.24 | 0.13 | 71 | 1011.4 |
| 20260902113049 | 57 | 252 | 7.0 | 15.0 | 0.00 | 0.24 | 0.13 | 72 | 1011.4 |
| 20260902111547 | 55 | 273 | 5.0 | 9.0 | 0.00 | 0.24 | 0.13 | 81 | 1011.3 |
| 20260902110046 | 55 | 309 | 2.0 | 11.0 | 0.00 | 0.24 | 0.13 | 85 | 1011.3 |
| 20260902104543 | 54 | 317 | 9.0 | 16.0 | 0.00 | 0.24 | 0.13 | 83 | 1011.2 |
| 20260902103057 | 54 | 288 | 8.0 | 15.0 | 0.00 | 0.24 | 0.13 | 86 | 1011.1 |
| 20260902101539 | 53 | 243 | 12.0 | 18.0 | 0.00 | 0.24 | 0.13 | 86 | 1011.2 |
| 20260902100052 | 55 | 259 | 10.0 | 18.0 | 0.00 | 0.24 | 0.13 | 80 | 1011.0 |
| 20260902094535 | 57 | 264 | 10.0 | 17.0 | 0.00 | 0.24 | 0.13 | 76 | 1010.9 |
| 20260902093042 | 56 | 277 | 10.0 | 16.0 | 0.00 | 0.24 | 0.13 | 79 | 1010.8 |
| 20260902091533 | 55 | 281 | 8.0 | 15.0 | 0.00 | 0.24 | 0.13 | 84 | 1010.7 |
| 20260902090031 | 57 | 265 | 11.0 | 18.0 | 0.00 | 0.24 | 0.13 | 76 | 1010.6 |
| 20260902084630 | 57 | 255 | 10.0 | 17.0 | 0.00 | 0.24 | 0.13 | 75 | 1010.4 |
| 20260902083037 | 57 | 268 | 11.0 | 18.0 | 0.00 | 0.24 | 0.13 | 77 | 1010.3 |
| 20260902081526 | 58 | 246 | 13.0 | 19.0 | 0.00 | 0.24 | 0.13 | 73 | 1010.2 |
| 20260902080024 | 57 | 246 | 10.0 | 17.0 | 0.00 | 0.24 | 0.13 | 72 | 1010.0 |
| 20260902074526 | 57 | 264 | 8.0 | 15.0 | 0.00 | 0.24 | 0.13 | 74 | 1009.9 |
| 20260902073023 | 57 | 257 | 9.0 | 15.0 | 0.00 | 0.24 | 0.13 | 73 | 1009.7 |
| 20260902071520 | 57 | 258 | 9.0 | 17.0 | 0.00 | 0.24 | 0.13 | 74 | 1009.6 |
| 20260902070018 | 57 | 267 | 9.0 | 16.0 | 0.00 | 0.24 | 0.13 | 77 | 1009.6 |
| 20260902064522 | 55 | 298 | 9.0 | 15.0 | 0.01 | 0.24 | 0.13 | 82 | 1009.4 |
| 20260902063017 | 56 | 330 | 8.0 | 14.0 | 0.01 | 0.24 | 0.13 | 85 | 1009.4 |
| 20260902061521 | 55 | 240 | 8.0 | 12.0 | 0.01 | 0.24 | 0.13 | 87 | 1009.3 |
| 20260902060016 | 54 | 276 | 9.0 | 15.0 | 0.04 | 0.24 | 0.13 | 87 | 1009.2 |
| 20260902054520 | 56 | 296 | 9.0 | 18.0 | 0.06 | 0.24 | 0.13 | 86 | 1009.2 |
| 20260902053014 | 56 | 278 | 9.0 | 16.0 | 0.12 | 0.24 | 0.13 | 85 | 1009.0 |
| 20260902051514 | 55 | 267 | 8.0 | 14.0 | 0.12 | 0.24 | 0.13 | 87 | 1009.0 |
| 20260902050023 | 56 | 242 | 13.0 | 20.0 | 0.07 | 0.19 | 0.08 | 86 | 1008.8 |
| 20260902044511 | 54 | 271 | 6.0 | 20.0 | 0.06 | 0.17 | 0.06 | 86 | 1009.0 |
| 20260902043012 | 55 | 321 | 12.0 | 19.0 | 0.00 | 0.12 | 0.01 | 85 | 1008.9 |
| 20260902041512 | 57 | 307 | 8.0 | 14.0 | 0.00 | 0.12 | 0.01 | 80 | 1009.0 |
| 20260902040006 | 58 | 232 | 10.0 | 15.0 | 0.00 | 0.12 | 0.01 | 76 | 1008.8 |